Saturday, February 6, 2016, 6:04 PM EST

KRDG, Reading Regional Airport

Location: Reading, PA, United States Lat: 40.367
Local Time: 6:04 PM EST (23:04 GMT) Lon: -75.967
Time Zone: US/Eastern Elev: 344 ft

Show me the last for .
Show Decoded

2016-02-06 17:54 METAR KRDG 062254Z 19005KT 10SM CLR 03/M07 A3027 RMK AO2 SLP261 T00281067 =
2016-02-06 16:54 METAR KRDG 062154Z 20006KT 10SM CLR 04/M07 A3027 RMK AO2 SLP257 T00391067 =
2016-02-06 15:54 METAR KRDG 062054Z 19010KT 10SM CLR 05/M07 A3027 RMK AO2 SLP258 T00501067 56019
                 =
2016-02-06 14:54 METAR KRDG 061954Z 22009KT 10SM CLR 05/M07 A3028 RMK AO2 SLP263 T00501067 =
2016-02-06 13:54 METAR KRDG 061854Z 21011KT 10SM CLR 06/M06 A3030 RMK AO2 SLP267 T00561061 =
2016-02-06 12:54 METAR KRDG 061754Z 24008KT 10SM CLR 04/M07 A3033 RMK AO2 SLP277 T00441067 10050
                 21050 58031 =
2016-02-06 11:54 METAR KRDG 061654Z 23006KT 10SM CLR 04/M07 A3037 RMK AO2 SLP293 T00391072 =
2016-02-06 10:54 METAR KRDG 061554Z 22003KT 10SM CLR 02/M07 A3040 RMK AO2 SLP304 T00221072 =
2016-02-06 09:54 METAR KRDG 061454Z 00000KT 10SM CLR 00/M07 A3042 RMK AO2 SLP310 T00001067 50006
                 =
2016-02-06 08:54 METAR KRDG 061354Z 00000KT 10SM CLR M02/M07 A3043 RMK AO2 SLP313 T10221067 =
2016-02-06 07:54 METAR KRDG 061254Z 00000KT 10SM CLR M04/M07 A3042 RMK AO2 SLP309 T10441072 =
2016-02-06 06:54 METAR KRDG 061154Z 00000KT 10SM CLR M05/M08 A3040 RMK AO2 SLP304 T10501078 11017
                 21050 51013 =
2016-02-06 05:54 METAR KRDG 061054Z 00000KT 10SM CLR M05/M08 A3039 RMK AO2 SLP301 T10501083 =
2016-02-06 04:54 METAR KRDG 060954Z 00000KT 10SM CLR M04/M08 A3038 RMK AO2 SLP296 T10391083 =
2016-02-06 03:54 METAR KRDG 060854Z 35003KT 10SM CLR M05/M09 A3036 RMK AO2 SLP289 T10501094 50000
                 =
2016-02-06 02:54 METAR KRDG 060754Z 00000KT 10SM CLR M04/M08 A3036 RMK AO2 SLP291 T10441078 =
2016-02-06 01:54 METAR KRDG 060654Z 26003KT 10SM CLR M02/M09 A3036 RMK AO2 SLP289 T10171089 =
2016-02-06 00:54 METAR KRDG 060554Z 30004KT 10SM CLR M02/M08 A3036 RMK AO2 SLP289 T10221083 10011
                 21033 53007 =
2016-02-05 23:54 METAR KRDG 060454Z 28006KT 10SM CLR M02/M08 A3035 RMK AO2 SLP286 T10171078
                 400501033 =
2016-02-05 22:54 METAR KRDG 060354Z 24004KT 10SM CLR M02/M07 A3035 RMK AO2 SLP284 T10171072 =
2016-02-05 21:54 METAR KRDG 060254Z 00000KT 10SM CLR M01/M07 A3034 RMK AO2 SLP282 T10111072 51010
                 =
2016-02-05 20:54 METAR KRDG 060154Z 30008KT 10SM CLR 01/M07 A3033 RMK AO2 SLP280 T00061072 =
2016-02-05 19:54 METAR KRDG 060054Z 31005KT 10SM SCT050 00/M07 A3032 RMK AO2 SLP274 T00001072 =
2016-02-05 18:54 METAR KRDG 052354Z 31006KT 10SM CLR 01/M07 A3031 RMK AO2 SLP272 T00061072 10050
                 20006 51032 =

Support USWX by starting your Amazon purchase here.